Time;durP1;ratioP1;P1;durP2;ratioP2;P2;SDS_P1;SDS_P2;PMS_P1;PMS_P2;Temp;Humidity;BMP_temperature;BMP_pressure;BME280_temperature;BME280_humidity;BME280_pressure;Samples;Min_cycle;Max_cycle;Signal;HPM_P1;HPM_P2
2023/03/03 00:00:14;;;;;;;;;65.00;53.50;;;;;-147.17;100.00;-12941.97;5072069;27;51167;-48
2023/03/03 00:02:40;;;;;;;;;57.00;47.00;;;;;-147.17;100.00;-12941.97;5071608;27;52079;-52
2023/03/03 00:05:05;;;;;;;;;64.25;50.25;;;;;-147.17;100.00;-13189.88;5072542;27;51276;-49
2023/03/03 00:07:31;;;;;;;;;56.50;45.50;;;;;-147.17;100.00;-13189.88;5070540;27;51289;-48
2023/03/03 00:09:56;;;;;;;;;61.25;50.00;;;;;-147.17;100.00;-13437.75;5072690;27;51264;-49
2023/03/03 00:12:28;;;;;;;;;57.25;47.75;;;;;-147.17;100.00;-13437.75;5071522;27;53403;-51
2023/03/03 00:14:54;;;;;;;;;58.50;44.50;;;;;-147.17;100.00;-13685.63;5072178;27;51366;-48
2023/03/03 00:17:23;;;;;;;;;53.50;45.00;;;;;-147.17;100.00;-13437.75;5072036;27;51375;-50
2023/03/03 00:19:49;;;;;;;;;56.50;44.25;;;;;-147.17;100.00;-13437.75;5072187;27;51305;-49
2023/03/03 00:22:29;;;;;;;;;53.25;44.75;;;;;-147.17;100.00;-13189.88;5071061;27;51346;-51
2023/03/03 00:24:57;;;;;;;;;56.25;47.50;;;;;-147.17;100.00;-13189.88;5071421;27;51369;-48
2023/03/03 00:27:29;;;;;;;;;57.00;46.75;;;;;-147.17;100.00;-13189.88;5070850;27;51258;-49
2023/03/03 00:29:59;;;;;;;;;58.00;44.75;;;;;-147.17;100.00;-13437.75;5072710;27;51215;-48
2023/03/03 00:32:49;;;;;;;;;52.50;44.00;;;;;-147.17;100.00;-13685.63;5071993;27;51272;-50
2023/03/03 00:35:35;;;;;;;;;56.25;45.75;;;;;-147.17;100.00;-13933.50;5070909;27;51640;-49
2023/03/03 00:38:13;;;;;;;;;55.00;46.00;;;;;-147.17;100.00;-13933.50;5070242;27;51339;-48
2023/03/03 00:40:39;;;;;;;;;48.75;43.00;;;;;-147.17;100.00;-13933.50;5072317;27;51367;-49
2023/03/03 00:43:17;;;;;;;;;56.25;44.75;;;;;-147.17;100.00;-13933.50;5071144;27;52261;-50
2023/03/03 00:45:49;;;;;;;;;54.25;45.25;;;;;-147.17;100.00;-13933.50;5070802;27;51239;-49
2023/03/03 00:48:25;;;;;;;;;54.00;44.75;;;;;-147.17;100.00;-14181.31;5070426;27;51407;-50
2023/03/03 00:50:53;;;;;;;;;55.25;44.75;;;;;-147.17;100.00;-14181.31;5072011;27;51310;-50
2023/03/03 00:53:21;;;;;;;;;57.75;45.75;;;;;-147.17;100.00;-14429.16;5070476;27;51731;-49
2023/03/03 00:55:48;;;;;;;;;53.00;43.00;;;;;-147.17;100.00;-14429.16;5071501;27;53229;-50
2023/03/03 00:58:14;;;;;;;;;51.75;43.75;;;;;-147.17;100.00;-14676.94;5071489;27;51243;-50
2023/03/03 01:00:40;;;;;;;;;58.75;44.25;;;;;-147.17;100.00;-14924.75;5071844;27;51310;-49
2023/03/03 01:03:08;;;;;;;;;56.75;46.50;;;;;-147.17;100.00;-14924.75;5071102;27;52049;-50
2023/03/03 01:05:34;;;;;;;;;57.00;48.00;;;;;-147.17;100.00;-14676.94;5070427;27;53105;-50
2023/03/03 01:08:00;;;;;;;;;58.50;47.25;;;;;-147.17;100.00;-14676.94;5071386;27;51429;-48
2023/03/03 01:10:29;;;;;;;;;52.25;44.75;;;;;-147.17;100.00;-14924.75;5070745;27;51276;-50
2023/03/03 01:12:54;;;;;;;;;49.00;42.50;;;;;-147.17;100.00;-14924.75;5069667;27;51890;-49
2023/03/03 01:15:20;;;;;;;;;55.50;47.25;;;;;-147.17;100.00;-14924.75;5069842;27;51245;-50
2023/03/03 01:17:45;;;;;;;;;49.25;43.25;;;;;-147.17;100.00;-14924.75;5070388;27;51310;-49
2023/03/03 01:20:13;;;;;;;;;55.25;46.50;;;;;-147.17;100.00;-15172.50;5070923;27;52683;-49
2023/03/03 01:22:39;;;;;;;;;51.50;45.25;;;;;-147.17;100.00;-15172.50;5069228;27;51871;-50
2023/03/03 01:25:05;;;;;;;;;56.25;46.00;;;;;-147.17;100.00;-15420.25;5070848;27;53350;-49
2023/03/03 01:27:30;;;;;;;;;44.75;38.00;;;;;-147.17;100.00;-15668.00;5103364;27;51831;-48
2023/03/03 01:29:56;;;;;;;;;49.75;43.75;;;;;-147.17;100.00;-15668.00;5069245;27;51175;-49
2023/03/03 01:32:22;;;;;;;;;52.75;45.00;;;;;-147.17;100.00;-15668.00;5070940;27;51930;-50
2023/03/03 01:34:48;;;;;;;;;50.25;44.25;;;;;-147.17;100.00;-15668.00;5071098;27;51353;-49
2023/03/03 01:37:13;;;;;;;;;53.25;45.50;;;;;-147.17;100.00;-15915.72;5069343;27;51610;-50
2023/03/03 01:39:39;;;;;;;;;49.25;44.25;;;;;-147.17;100.00;-15917.19;5070433;27;51257;-50
2023/03/03 01:42:04;;;;;;;;;56.25;44.00;;;;;-147.17;100.00;-15917.19;5069065;27;51167;-47
2023/03/03 01:44:30;;;;;;;;;52.50;46.00;;;;;-147.17;100.00;-15917.19;5069829;27;51436;-49
2023/03/03 01:47:07;;;;;;;;;52.75;42.75;;;;;-147.17;100.00;-15917.19;5069437;27;51240;-49
2023/03/03 01:49:58;;;;;;;;;47.75;41.75;;;;;-147.17;100.00;-15917.19;5070817;27;51675;-50
2023/03/03 01:52:29;;;;;;;;;57.00;47.00;;;;;-147.17;100.00;-15917.19;5071034;27;52454;-51
2023/03/03 01:54:58;;;;;;;;;57.50;46.00;;;;;-147.17;100.00;-15917.19;5070665;27;51238;-55
2023/03/03 01:57:30;;;;;;;;;56.25;44.75;;;;;-147.17;100.00;-15917.19;5069852;27;51173;-49
2023/03/03 01:59:58;;;;;;;;;58.75;47.00;;;;;-147.17;100.00;-15917.19;5070546;27;53495;-50
2023/03/03 02:02:25;;;;;;;;;57.25;46.50;;;;;-147.17;100.00;-15917.19;5069133;27;51698;-49
2023/03/03 02:04:51;;;;;;;;;58.75;48.00;;;;;-147.17;100.00;-15917.19;5069045;27;51333;-48
2023/03/03 02:07:17;;;;;;;;;57.00;47.00;;;;;-147.17;100.00;-15917.19;5068234;27;51879;-49
2023/03/03 02:10:08;;;;;;;;;55.50;46.25;;;;;-147.17;100.00;-15917.19;5069595;27;51288;-50
2023/03/03 02:12:53;;;;;;;;;56.00;46.25;;;;;-147.17;100.00;-15917.19;5069220;27;51239;-50
2023/03/03 02:15:31;;;;;;;;;54.75;43.75;;;;;-147.17;100.00;-15917.19;5069791;27;51213;-50
2023/03/03 02:18:00;;;;;;;;;48.75;43.50;;;;;-147.17;100.00;-15917.19;5069778;27;51290;-49
2023/03/03 02:20:31;;;;;;;;;58.00;47.50;;;;;-147.17;100.00;-15917.19;5073366;27;51351;-49
2023/03/03 02:23:17;;;;;;;;;50.25;41.50;;;;;-147.17;100.00;-15917.19;5075922;27;52912;-49
2023/03/03 02:25:54;;;;;;;;;53.75;42.00;;;;;-147.17;100.00;-15917.19;5068752;27;51157;-50
2023/03/03 02:28:22;;;;;;;;;56.25;47.50;;;;;-147.17;100.00;-15917.19;5070493;27;51262;-50
2023/03/03 02:30:47;;;;;;;;;55.75;45.00;;;;;-147.17;100.00;-15917.19;5069926;27;51200;-51
2023/03/03 02:33:13;;;;;;;;;60.75;44.50;;;;;-147.17;100.00;-15917.19;5069697;27;52232;-49
2023/03/03 02:35:40;;;;;;;;;52.50;44.00;;;;;-147.17;100.00;-15917.19;5070577;27;51246;-47
2023/03/03 02:38:28;;;;;;;;;55.75;44.50;;;;;-147.17;100.00;-15917.19;5067401;27;51168;-49
2023/03/03 02:41:06;;;;;;;;;58.00;46.25;;;;;-147.17;100.00;-15917.19;5071088;27;51227;-48
2023/03/03 02:44:13;;;;;;;;;57.00;44.50;;;;;-147.17;100.00;-15917.19;5068951;27;52465;-50
2023/03/03 02:46:41;;;;;;;;;58.25;45.25;;;;;-147.17;100.00;-15917.19;5060914;27;53566;-48
2023/03/03 02:49:09;;;;;;;;;56.00;45.25;;;;;-147.17;100.00;-15917.19;5071214;27;51272;-49
2023/03/03 02:51:36;;;;;;;;;53.00;44.50;;;;;-147.17;100.00;-15917.19;5069703;27;51169;-47
2023/03/03 02:54:02;;;;;;;;;52.50;42.50;;;;;-147.17;100.00;-15917.19;5070019;27;51134;-47
2023/03/03 02:56:27;;;;;;;;;57.75;47.25;;;;;-147.17;100.00;-15917.19;5069593;27;51433;-49
2023/03/03 02:58:53;;;;;;;;;50.75;43.00;;;;;-147.17;100.00;-15917.19;5070979;27;51335;-48
2023/03/03 03:01:19;;;;;;;;;61.25;49.25;;;;;-147.17;100.00;-15917.19;5070256;27;51182;-49
2023/03/03 03:03:44;;;;;;;;;56.50;47.25;;;;;-147.17;100.00;-15917.19;5072118;27;51203;-50
2023/03/03 03:06:09;;;;;;;;;58.25;46.50;;;;;-147.17;100.00;-15917.19;5072062;27;51532;-51
2023/03/03 03:08:35;;;;;;;;;61.00;50.00;;;;;-147.17;100.00;-15917.19;5072912;27;52975;-49
2023/03/03 03:11:00;;;;;;;;;60.50;50.75;;;;;-147.17;100.00;-15917.19;5073717;27;51410;-50
2023/03/03 03:13:26;;;;;;;;;60.25;48.75;;;;;-147.17;100.00;-15917.19;5072972;27;53175;-49
2023/03/03 03:15:51;;;;;;;;;56.25;45.75;;;;;-147.17;100.00;-15917.19;5073403;27;53546;-50
2023/03/03 03:18:17;;;;;;;;;61.00;49.25;;;;;-147.17;100.00;-15917.19;5073034;27;51124;-50
2023/03/03 03:20:43;;;;;;;;;52.75;44.25;;;;;-147.17;100.00;-15917.19;5072929;27;51074;-49
2023/03/03 03:23:11;;;;;;;;;54.75;46.00;;;;;-147.17;100.00;-15917.19;5072123;27;51218;-49
2023/03/03 03:25:44;;;;;;;;;55.50;48.00;;;;;-147.17;100.00;-15917.19;5071842;27;53519;-48
2023/03/03 03:28:10;;;;;;;;;54.75;45.00;;;;;-147.17;100.00;-15917.19;5071486;27;51277;-48
2023/03/03 03:30:35;;;;;;;;;56.25;47.75;;;;;-147.17;100.00;-15917.19;5072059;27;51136;-48
2023/03/03 03:33:01;;;;;;;;;59.75;46.50;;;;;-147.17;100.00;-15917.19;5069847;27;57539;-47
2023/03/03 03:35:27;;;;;;;;;54.50;45.75;;;;;-147.17;100.00;-15917.19;5071477;27;55190;-48
2023/03/03 03:37:52;;;;;;;;;55.25;47.25;;;;;-147.17;100.00;-15917.19;5072627;27;53327;-48
2023/03/03 03:40:18;;;;;;;;;60.75;46.75;;;;;-147.17;100.00;-15917.19;5072905;27;51329;-49
2023/03/03 03:42:43;;;;;;;;;58.50;48.75;;;;;-147.17;100.00;-15917.19;5071335;27;51616;-48
2023/03/03 03:45:09;;;;;;;;;55.00;45.25;;;;;-147.17;100.00;-15917.19;5070942;27;51359;-49
2023/03/03 03:47:34;;;;;;;;;52.75;44.75;;;;;-147.17;100.00;-15917.19;5072321;27;51385;-50
2023/03/03 03:50:00;;;;;;;;;59.50;47.75;;;;;-147.17;100.00;-15917.19;5071632;27;51181;-49
2023/03/03 03:52:25;;;;;;;;;51.75;44.25;;;;;-147.17;100.00;-15917.19;5072182;27;51134;-48
2023/03/03 03:54:50;;;;;;;;;60.00;48.50;;;;;-147.17;100.00;-15917.19;5071745;27;51208;-50
2023/03/03 03:57:16;;;;;;;;;49.50;43.00;;;;;-147.17;100.00;-15917.19;5072168;27;51151;-51
2023/03/03 03:59:41;;;;;;;;;64.75;53.50;;;;;-147.17;100.00;-15917.19;5072300;27;51205;-49
2023/03/03 04:02:06;;;;;;;;;60.75;48.75;;;;;-147.17;100.00;-15917.19;5071153;27;53405;-50
2023/03/03 04:04:32;;;;;;;;;59.75;48.00;;;;;-147.17;100.00;-15917.19;5070247;27;51317;-50
2023/03/03 04:06:58;;;;;;;;;52.00;44.50;;;;;-147.17;100.00;-15917.19;5070250;27;53537;-49
2023/03/03 04:09:23;;;;;;;;;61.75;50.50;;;;;-147.17;100.00;-15917.19;5072844;27;52884;-50
2023/03/03 04:11:49;;;;;;;;;58.50;49.50;;;;;-147.17;100.00;-15917.19;5071308;27;52807;-50
2023/03/03 04:14:14;;;;;;;;;48.00;40.50;;;;;-147.17;100.00;-15917.19;5070998;27;51188;-49
2023/03/03 04:16:39;;;;;;;;;56.75;46.25;;;;;-147.17;100.00;-15917.19;5072631;27;51422;-50
2023/03/03 04:19:05;;;;;;;;;65.00;51.00;;;;;-147.17;100.00;-15917.19;5071761;27;51135;-51
2023/03/03 04:21:30;;;;;;;;;60.00;48.75;;;;;-147.17;100.00;-15917.19;5070596;27;51265;-50
2023/03/03 04:23:55;;;;;;;;;57.00;47.25;;;;;-147.17;100.00;-15917.19;5071819;27;51055;-49
2023/03/03 04:26:21;;;;;;;;;61.50;50.25;;;;;-147.17;100.00;-15917.19;5071446;27;51134;-48
2023/03/03 04:28:47;;;;;;;;;62.25;48.50;;;;;-147.17;100.00;-15917.19;5070240;27;51286;-50
2023/03/03 04:31:12;;;;;;;;;62.75;49.50;;;;;-147.17;100.00;-15917.19;5071041;27;52771;-49
2023/03/03 04:33:37;;;;;;;;;52.25;46.25;;;;;-147.17;100.00;-15917.19;5070549;27;51210;-49
2023/03/03 04:36:03;;;;;;;;;59.25;48.25;;;;;-147.17;100.00;-15917.19;5072731;27;51195;-49
2023/03/03 04:38:29;;;;;;;;;64.25;51.00;;;;;-147.17;100.00;-15917.19;5071345;27;51578;-48
2023/03/03 04:40:55;;;;;;;;;61.00;51.25;;;;;-147.17;100.00;-15917.19;5072141;27;51103;-49
2023/03/03 04:43:20;;;;;;;;;62.00;49.75;;;;;-147.17;100.00;-15917.19;5071494;27;51201;-48
2023/03/03 04:45:46;;;;;;;;;57.00;49.25;;;;;-147.17;100.00;-15917.19;5070348;27;51261;-49
2023/03/03 04:48:11;;;;;;;;;64.00;51.25;;;;;-147.17;100.00;-15917.19;5070599;27;52260;-49
2023/03/03 04:50:36;;;;;;;;;63.50;51.75;;;;;-147.17;100.00;-15917.19;5071590;27;52165;-48
2023/03/03 04:53:02;;;;;;;;;63.50;49.25;;;;;-147.17;100.00;-15917.19;5071140;27;51148;-50
2023/03/03 04:55:27;;;;;;;;;54.75;46.00;;;;;-147.17;100.00;-15917.19;5072153;27;51380;-49
2023/03/03 04:57:52;;;;;;;;;65.75;50.75;;;;;-147.17;100.00;-15917.19;5070611;27;51373;-49
2023/03/03 05:00:18;;;;;;;;;60.00;49.50;;;;;-147.17;100.00;-15917.19;5071217;27;51207;-50
2023/03/03 05:02:46;;;;;;;;;62.25;50.25;;;;;-147.17;100.00;-15917.19;5068916;27;51186;-50
2023/03/03 05:05:12;;;;;;;;;56.75;44.00;;;;;-147.17;100.00;-15917.19;5077167;27;53725;-48
2023/03/03 05:07:38;;;;;;;;;59.50;48.50;;;;;-147.17;100.00;-15917.19;5071667;27;51307;-48
2023/03/03 05:10:04;;;;;;;;;66.25;52.50;;;;;-147.17;100.00;-15917.19;5070735;27;51217;-50
2023/03/03 05:12:29;;;;;;;;;49.50;43.25;;;;;-147.17;100.00;-15917.19;5070753;27;51450;-49
2023/03/03 05:14:54;;;;;;;;;64.25;52.25;;;;;-147.17;100.00;-15917.19;5069642;27;54305;-49
2023/03/03 05:17:19;;;;;;;;;65.25;51.75;;;;;-147.17;100.00;-15917.19;5069880;27;52919;-49
2023/03/03 05:19:45;;;;;;;;;70.00;55.50;;;;;-147.17;100.00;-15917.19;5069504;27;51574;-49
2023/03/03 05:22:10;;;;;;;;;69.75;55.75;;;;;-147.17;100.00;-15917.19;5069719;27;53400;-50
2023/03/03 05:24:35;;;;;;;;;65.50;53.50;;;;;-147.17;100.00;-15917.19;5069683;27;51229;-47
2023/03/03 05:27:02;;;;;;;;;57.00;47.50;;;;;-147.17;100.00;-15917.19;5070678;27;51193;-57
2023/03/03 05:29:30;;;;;;;;;55.50;44.00;;;;;-147.17;100.00;-15917.19;5070703;27;53268;-48
2023/03/03 05:31:58;;;;;;;;;62.00;50.75;;;;;-147.17;100.00;-15917.19;5069010;27;51250;-49
2023/03/03 05:34:24;;;;;;;;;63.25;50.25;;;;;-147.17;100.00;-15917.19;5070150;27;53111;-50
2023/03/03 05:36:50;;;;;;;;;58.25;50.25;;;;;-147.17;100.00;-15917.19;5070116;27;51188;-49
2023/03/03 05:39:15;;;;;;;;;64.50;52.25;;;;;-147.17;100.00;-15917.19;5069012;27;51192;-49
2023/03/03 05:41:41;;;;;;;;;65.50;48.75;;;;;-147.17;100.00;-15917.19;5069836;27;51211;-49
2023/03/03 05:44:07;;;;;;;;;59.50;46.25;;;;;-147.17;100.00;-15917.19;5070025;27;51173;-48
2023/03/03 05:46:32;;;;;;;;;65.25;53.25;;;;;-147.17;100.00;-15917.19;5070276;27;53424;-51
2023/03/03 05:48:58;;;;;;;;;73.00;58.25;;;;;-147.17;100.00;-15917.19;5070163;27;51253;-50
2023/03/03 05:51:23;;;;;;;;;62.25;50.75;;;;;-147.17;100.00;-15917.19;5070210;27;51202;-51
2023/03/03 05:53:48;;;;;;;;;63.25;51.50;;;;;-147.17;100.00;-15917.19;5070129;27;51141;-50
2023/03/03 05:56:14;;;;;;;;;68.25;53.00;;;;;-147.17;100.00;-15917.19;5069961;27;53672;-50
2023/03/03 05:58:39;;;;;;;;;56.00;46.50;;;;;-147.17;100.00;-15917.19;5069152;27;51185;-50
2023/03/03 06:01:04;;;;;;;;;64.00;51.00;;;;;-147.17;100.00;-15917.19;5068613;27;51182;-50
2023/03/03 06:03:30;;;;;;;;;65.50;51.25;;;;;-147.17;100.00;-15917.19;5070144;27;51261;-49
2023/03/03 06:05:56;;;;;;;;;63.50;52.00;;;;;-147.17;100.00;-15917.19;5069334;27;51186;-49
2023/03/03 06:08:21;;;;;;;;;65.00;53.50;;;;;-147.17;100.00;-15917.19;5069856;27;51689;-49
2023/03/03 06:10:47;;;;;;;;;64.25;51.25;;;;;-147.17;100.00;-15917.19;5071026;27;51304;-49
2023/03/03 06:13:12;;;;;;;;;61.25;50.00;;;;;-147.17;100.00;-15917.19;5068513;27;51384;-50
2023/03/03 06:15:37;;;;;;;;;60.50;49.75;;;;;-147.17;100.00;-15917.19;5069726;27;51436;-49
2023/03/03 06:18:03;;;;;;;;;65.50;51.50;;;;;-147.17;100.00;-15917.19;5069615;27;54197;-49
2023/03/03 06:20:28;;;;;;;;;64.25;54.25;;;;;-147.17;100.00;-15917.19;5068849;27;51233;-50
2023/03/03 06:22:54;;;;;;;;;64.75;52.00;;;;;-147.17;100.00;-15917.19;5070212;27;53017;-49
2023/03/03 06:25:19;;;;;;;;;62.75;51.25;;;;;-147.17;100.00;-15917.19;5069866;27;51249;-50
2023/03/03 06:27:44;;;;;;;;;66.75;54.00;;;;;-147.17;100.00;-15917.19;5069332;27;52429;-49
2023/03/03 06:30:11;;;;;;;;;69.75;54.00;;;;;-147.17;100.00;-15917.19;5069233;27;53501;-50
2023/03/03 06:32:37;;;;;;;;;66.25;54.50;;;;;-147.17;100.00;-15917.19;5068087;27;51298;-49
2023/03/03 06:35:03;;;;;;;;;65.25;51.25;;;;;-147.17;100.00;-15917.19;5068060;27;51123;-47
2023/03/03 06:37:28;;;;;;;;;62.50;50.00;;;;;-147.17;100.00;-15917.19;5073715;27;51130;-48
2023/03/03 06:39:54;;;;;;;;;70.25;57.50;;;;;-147.17;100.00;-15917.19;5075426;27;51471;-48
2023/03/03 06:42:19;;;;;;;;;65.75;53.75;;;;;-147.17;100.00;-15917.19;5073004;27;51403;-50
2023/03/03 06:44:45;;;;;;;;;66.50;53.25;;;;;-147.17;100.00;-15917.19;5072882;27;51405;-48
2023/03/03 06:47:10;;;;;;;;;68.50;55.00;;;;;-147.17;100.00;-15917.19;5072641;27;51742;-48
2023/03/03 06:49:36;;;;;;;;;58.75;47.00;;;;;-147.17;100.00;-15917.19;5073026;27;51171;-48
2023/03/03 06:52:11;;;;;;;;;65.75;56.00;;;;;-147.17;100.00;-15917.19;5073278;27;51161;-50
2023/03/03 06:54:36;;;;;;;;;65.50;53.75;;;;;-147.17;100.00;-15917.19;5072634;27;51324;-50
2023/03/03 06:57:14;;;;;;;;;71.50;55.50;;;;;-147.17;100.00;-15917.19;5072592;27;51169;-47
2023/03/03 06:59:40;;;;;;;;;66.00;53.75;;;;;-147.17;100.00;-15917.19;5072719;27;51258;-51
2023/03/03 07:02:14;;;;;;;;;66.00;54.00;;;;;-147.17;100.00;-15917.19;5073413;27;51200;-48
2023/03/03 07:04:40;;;;;;;;;73.25;58.00;;;;;-147.17;100.00;-15917.19;5072091;27;51399;-49
2023/03/03 07:07:20;;;;;;;;;66.75;54.00;;;;;-147.17;100.00;-15917.19;5071333;27;51729;-49
2023/03/03 07:09:55;;;;;;;;;76.00;58.25;;;;;-147.17;100.00;-15917.19;5090157;27;51172;-50
2023/03/03 07:12:23;;;;;;;;;68.00;54.25;;;;;-147.17;100.00;-15917.19;5071282;27;51164;-48
2023/03/03 07:15:14;;;;;;;;;72.00;58.25;;;;;-147.17;100.00;-15917.19;5071764;27;51181;-48
2023/03/03 07:17:44;;;;;;;;;72.25;58.25;;;;;-147.17;100.00;-15917.19;5064356;27;52097;-49
2023/03/03 07:20:37;;;;;;;;;72.00;56.00;;;;;-147.17;100.00;-15917.19;5072946;27;51222;-49
2023/03/03 07:23:32;;;;;;;;;72.00;56.50;;;;;-147.17;100.00;-15917.19;5065026;27;51588;-47
2023/03/03 07:25:58;;;;;;;;;69.25;56.25;;;;;-147.17;100.00;-15917.19;5069581;27;51198;-51
2023/03/03 07:28:28;;;;;;;;;70.25;57.50;;;;;-147.17;100.00;-15917.19;5072429;27;62279;-48
2023/03/03 07:30:55;;;;;;;;;73.50;58.25;;;;;-147.17;100.00;-15917.19;5072037;27;51221;-49
2023/03/03 07:33:27;;;;;;;;;76.00;60.00;;;;;-147.17;100.00;-15917.19;5073138;27;51220;-50
2023/03/03 07:35:58;;;;;;;;;73.75;59.50;;;;;-147.17;100.00;-15917.19;5071381;27;53319;-50
2023/03/03 07:38:30;;;;;;;;;70.00;58.25;;;;;-147.17;100.00;-15917.19;5071671;27;51428;-50
2023/03/03 07:41:00;;;;;;;;;76.75;59.00;;;;;-147.17;100.00;-15917.19;5072206;27;51259;-48
2023/03/03 07:43:30;;;;;;;;;71.25;57.25;;;;;-147.17;100.00;-15917.19;5071878;27;51465;-49
2023/03/03 07:46:02;;;;;;;;;72.00;57.00;;;;;-147.17;100.00;-15917.19;5071226;27;51235;-49
2023/03/03 07:48:36;;;;;;;;;80.75;59.75;;;;;-147.17;100.00;-15917.19;5070901;27;51341;-48
2023/03/03 07:51:17;;;;;;;;;72.25;58.75;;;;;-147.17;100.00;-15917.19;5073533;27;51250;-49
2023/03/03 07:53:43;;;;;;;;;76.75;61.25;;;;;-147.17;100.00;-15917.19;5072114;27;51172;-50
2023/03/03 07:56:35;;;;;;;;;76.00;58.00;;;;;-147.17;100.00;-15917.19;5072423;27;51188;-50
2023/03/03 07:59:21;;;;;;;;;73.00;57.25;;;;;-147.17;100.00;-15917.19;5071030;27;51156;-49
2023/03/03 08:01:51;;;;;;;;;76.75;57.75;;;;;-147.17;100.00;-15917.19;5073237;27;51218;-50
2023/03/03 08:04:23;;;;;;;;;73.75;58.25;;;;;-147.17;100.00;-15917.19;5071934;27;51136;-50
2023/03/03 08:06:56;;;;;;;;;71.50;58.00;;;;;-147.17;100.00;-15917.19;5071067;27;51153;-48
2023/03/03 08:09:30;;;;;;;;;75.00;58.00;;;;;-147.17;100.00;-15917.19;5070333;27;51276;-49
2023/03/03 08:12:04;;;;;;;;;71.00;57.00;;;;;-147.17;100.00;-15917.19;5072915;27;51368;-48
2023/03/03 08:14:34;;;;;;;;;71.25;58.00;;;;;-147.17;100.00;-15917.19;5075670;27;51360;-49
2023/03/03 08:17:00;;;;;;;;;75.50;60.00;;;;;-147.17;100.00;-15917.19;5068422;27;51913;-50
2023/03/03 08:19:28;;;;;;;;;77.50;59.00;;;;;-147.17;100.00;-15917.19;5071623;27;51461;-51
2023/03/03 08:22:02;;;;;;;;;77.00;61.00;;;;;-147.17;100.00;-15917.19;5072584;27;51151;-48
2023/03/03 08:24:27;;;;;;;;;76.50;57.50;;;;;-147.17;100.00;-15917.19;5070771;27;51288;-50
2023/03/03 08:26:52;;;;;;;;;72.25;57.25;;;;;-147.17;100.00;-15917.19;5071638;27;51108;-50
2023/03/03 08:29:18;;;;;;;;;74.50;59.00;;;;;-147.17;100.00;-15917.19;5070506;27;52165;-49
2023/03/03 08:31:43;;;;;;;;;75.75;59.25;;;;;-147.17;100.00;-15917.19;5071793;27;53452;-50
2023/03/03 08:34:09;;;;;;;;;77.75;58.75;;;;;-147.17;100.00;-15917.19;5071390;27;53178;-48
2023/03/03 08:36:34;;;;;;;;;79.00;59.00;;;;;-147.17;100.00;-15917.19;5071116;27;51211;-49
2023/03/03 08:39:00;;;;;;;;;70.75;57.00;;;;;-147.17;100.00;-15917.19;5070316;27;52075;-49
2023/03/03 08:41:25;;;;;;;;;74.50;59.00;;;;;-147.17;100.00;-15917.19;5071147;27;52865;-49
2023/03/03 08:43:51;;;;;;;;;68.50;56.50;;;;;-147.17;100.00;-15917.19;5070754;27;53490;-48
2023/03/03 08:46:16;;;;;;;;;72.75;59.00;;;;;-147.17;100.00;-15917.19;5069663;27;53498;-50
2023/03/03 08:48:41;;;;;;;;;77.25;59.50;;;;;-147.17;100.00;-15917.19;5070605;27;51269;-48
2023/03/03 08:51:07;;;;;;;;;75.25;57.50;;;;;-147.17;100.00;-15917.19;5070993;27;51176;-49
2023/03/03 08:53:35;;;;;;;;;79.75;59.50;;;;;-147.17;100.00;-15917.19;5070841;27;51193;-50
2023/03/03 08:56:00;;;;;;;;;72.50;57.00;;;;;-147.17;100.00;-15917.19;5070322;27;51083;-49
2023/03/03 08:58:26;;;;;;;;;69.50;56.25;;;;;-147.17;100.00;-15917.19;5069616;27;51218;-49
2023/03/03 09:00:51;;;;;;;;;76.25;58.00;;;;;-147.17;100.00;-15917.19;5069562;27;51264;-50
2023/03/03 09:03:16;;;;;;;;;72.25;58.00;;;;;-147.17;100.00;-15917.19;5070418;27;51124;-49
2023/03/03 09:05:43;;;;;;;;;72.00;56.75;;;;;-147.17;100.00;-15917.19;5070962;27;51362;-50
2023/03/03 09:08:09;;;;;;;;;72.50;58.50;;;;;-147.17;100.00;-15917.19;5070079;27;52809;-50
2023/03/03 09:10:35;;;;;;;;;67.75;55.00;;;;;-147.17;100.00;-15917.19;5073900;27;51459;-49
2023/03/03 09:13:24;;;;;;;;;77.00;58.00;;;;;-147.17;100.00;-15917.19;5069708;27;51285;-50
2023/03/03 09:15:49;;;;;;;;;74.25;55.25;;;;;-147.17;100.00;-15917.19;5068211;27;51184;-49
2023/03/03 09:18:19;;;;;;;;;73.50;59.25;;;;;-147.17;100.00;-15917.19;5070015;27;51150;-51
2023/03/03 09:20:45;;;;;;;;;70.75;56.00;;;;;-147.17;100.00;-15917.19;5069259;27;51399;-49
2023/03/03 09:23:42;;;;;;;;;71.25;54.00;;;;;-147.17;100.00;-15917.19;5070807;27;52207;-49
2023/03/03 09:26:44;;;;;;;;;62.00;51.00;;;;;-147.17;100.00;-15917.19;5069466;27;53463;-49
2023/03/03 09:29:28;;;;;;;;;71.00;56.25;;;;;-147.17;100.00;-15917.19;5069915;27;53271;-51
2023/03/03 09:32:00;;;;;;;;;72.75;57.25;;;;;-147.17;100.00;-15917.19;5071062;27;53450;-51
2023/03/03 09:34:38;;;;;;;;;68.00;56.00;;;;;-147.17;100.00;-15917.19;5069638;27;51235;-51
2023/03/03 09:37:19;;;;;;;;;68.75;55.25;;;;;-147.17;100.00;-15917.19;5068690;27;51405;-50
2023/03/03 09:39:48;;;;;;;;;67.75;54.00;;;;;-147.17;100.00;-15917.19;5069785;27;51107;-51
2023/03/03 09:42:26;;;;;;;;;68.25;55.00;;;;;-147.17;100.00;-15917.19;5071198;27;51395;-51
2023/03/03 09:45:21;;;;;;;;;68.50;55.50;;;;;-147.17;100.00;-15917.19;5070360;27;51238;-50
2023/03/03 09:48:02;;;;;;;;;69.75;55.25;;;;;-147.17;100.00;-15917.19;5070922;27;51207;-48
2023/03/03 09:50:52;;;;;;;;;67.75;54.00;;;;;-147.17;100.00;-15917.19;5069335;27;52338;-51
2023/03/03 09:53:40;;;;;;;;;65.00;52.50;;;;;-147.17;100.00;-15917.19;5069887;27;51294;-48
2023/03/03 09:56:35;;;;;;;;;61.00;49.50;;;;;-147.17;100.00;-15917.19;5069733;27;51239;-51
2023/03/03 09:59:15;;;;;;;;;68.50;54.25;;;;;-147.17;100.00;-15917.19;5069943;27;51133;-50
2023/03/03 10:02:11;;;;;;;;;61.00;50.00;;;;;-147.17;100.00;-15917.19;5069304;27;51747;-51
2023/03/03 10:04:48;;;;;;;;;64.75;52.50;;;;;-147.17;100.00;-15917.19;5069634;27;51256;-52
2023/03/03 10:07:33;;;;;;;;;63.00;49.00;;;;;-147.17;100.00;-15917.19;5081241;27;51273;-50
2023/03/03 10:10:05;;;;;;;;;54.25;44.50;;;;;-147.17;100.00;-15917.19;5070556;27;51181;-50
2023/03/03 10:12:38;;;;;;;;;61.25;50.50;;;;;-147.17;100.00;-15917.19;5067158;27;51317;-49
2023/03/03 10:15:16;;;;;;;;;60.00;50.00;;;;;-147.17;100.00;-15917.19;5080902;27;51214;-50
2023/03/03 10:18:11;;;;;;;;;58.50;49.00;;;;;-147.17;100.00;-14429.16;5068943;27;51380;-48
2023/03/03 10:21:07;;;;;;;;;53.50;46.00;;;;;-147.17;100.00;-12198.19;5067439;27;51375;-49
2023/03/03 10:23:48;;;;;;;;;59.25;48.00;;;;;-147.17;100.00;-10958.19;5067502;27;53403;-49
2023/03/03 10:26:42;;;;;;;;;61.25;50.00;;;;;-147.17;100.00;-8973.38;5070153;27;53542;-50
2023/03/03 10:29:35;;;;;;;;;57.75;47.50;;;;;-147.17;100.00;-5000.69;5069644;27;51294;-51
2023/03/03 10:32:11;;;;;;;;;57.75;46.75;;;;;-147.17;100.00;-2515.66;5071041;27;51419;-49
2023/03/03 10:34:57;;;;;;;;;57.75;48.25;;;;;-147.17;100.00;-1023.88;5069217;27;52824;-51
2023/03/03 10:37:32;;;;;;;;;61.50;48.25;;;;;-147.17;100.00;-277.75;5067402;27;51243;-49
2023/03/03 10:40:07;;;;;;;;;60.25;48.25;;;;;-147.17;100.00;717.28;5068701;27;51128;-50
2023/03/03 10:42:41;;;;;;;;;57.50;47.50;;;;;-147.17;100.00;3206.00;5067911;27;51207;-51
2023/03/03 10:45:30;;;;;;;;;61.50;50.00;;;;;-147.17;100.00;7191.28;5066916;27;51802;-49
2023/03/03 10:48:27;;;;;;;;;57.25;47.25;;;;;-147.17;100.00;9933.56;5068189;27;51218;-50
2023/03/03 10:51:18;;;;;;;;;60.00;49.00;;;;;-147.17;100.00;12677.78;5069609;27;51406;-51
2023/03/03 10:53:59;;;;;;;;;60.50;48.25;;;;;-147.17;100.00;13426.53;5067484;27;51406;-51
2023/03/03 10:56:41;;;;;;;;;55.00;45.75;;;;;-147.17;100.00;15423.94;5069572;27;51275;-52
2023/03/03 10:59:15;;;;;;;;;60.25;48.75;;;;;-147.17;100.00;15423.94;5069053;27;51408;-50
2023/03/03 11:01:57;;;;;;;;;56.25;46.50;;;;;-147.17;100.00;17422.38;5068306;27;53565;-50